Time;durP1;ratioP1;P1;durP2;ratioP2;P2;SDS_P1;SDS_P2;PMS_P1;PMS_P2;Temp;Humidity;BMP_temperature;BMP_pressure;BME280_temperature;BME280_humidity;BME280_pressure;Samples;Min_cycle;Max_cycle;Signal;HPM_P1;HPM_P2
2023/01/30 00:00:13;;;;;;;179.70;11.95;;;;;;;-5.17;100.00;98465.84;5009999;28;20414;-53
2023/01/30 00:02:39;;;;;;;143.73;10.63;;;;;;;-5.15;100.00;98464.31;5031087;28;20043;-52
2023/01/30 00:05:04;;;;;;;259.17;14.85;;;;;;;-5.02;100.00;98457.47;5032243;28;20609;-54
2023/01/30 00:07:30;;;;;;;181.40;12.20;;;;;;;-5.01;100.00;98451.66;5031137;28;20051;-56
2023/01/30 00:09:55;;;;;;;152.05;10.77;;;;;;;-5.03;100.00;98446.47;5032552;28;20032;-55
2023/01/30 00:12:20;;;;;;;168.23;12.07;;;;;;;-5.00;100.00;98443.25;5032986;28;20132;-53
2023/01/30 00:14:46;;;;;;;163.63;12.15;;;;;;;-4.99;100.00;98442.47;5031435;28;20016;-53
2023/01/30 00:17:11;;;;;;;200.13;12.60;;;;;;;-4.96;100.00;98424.91;5031252;28;20075;-55
2023/01/30 00:19:36;;;;;;;226.55;13.60;;;;;;;-4.85;100.00;98415.44;5032829;28;20737;-53
2023/01/30 00:22:02;;;;;;;204.73;12.38;;;;;;;-4.73;100.00;98406.09;5031072;28;20065;-51
2023/01/30 00:24:27;;;;;;;230.23;14.20;;;;;;;-4.68;100.00;98402.97;5033431;28;20095;-52
2023/01/30 00:26:52;;;;;;;155.02;11.35;;;;;;;-4.63;100.00;98404.13;5027316;28;20036;-54
2023/01/30 00:29:18;;;;;;;135.57;11.27;;;;;;;-4.60;100.00;98411.94;5034319;28;20045;-53
2023/01/30 00:31:43;;;;;;;151.88;10.70;;;;;;;-4.59;100.00;98417.13;5034563;28;20372;-52
2023/01/30 00:34:08;;;;;;;153.13;11.75;;;;;;;-4.62;100.00;98404.22;5034742;28;20029;-52
2023/01/30 00:36:34;;;;;;;189.85;12.63;;;;;;;-4.65;100.00;98404.03;5034378;28;20049;-53
2023/01/30 00:38:59;;;;;;;166.38;12.50;;;;;;;-4.75;100.00;98407.63;5034991;28;20127;-53
2023/01/30 00:47:04;;;;;;;157.50;12.23;;;;;;;-4.81;100.00;98419.06;5033280;28;20063;-53
2023/01/30 00:47:06;;;;;;;166.00;11.45;;;;;;;-4.55;100.00;98422.38;5033248;28;20124;-53
2023/01/30 00:49:31;;;;;;;152.60;9.98;;;;;;;-4.40;100.00;98432.63;5033079;28;20028;-54
2023/01/30 00:51:57;;;;;;;147.30;11.88;;;;;;;-4.21;100.00;98439.75;5015040;28;20029;-54
2023/01/30 00:54:22;;;;;;;143.70;7.95;;;;;;;-4.06;100.00;98452.53;5034729;28;20607;-53
2023/01/30 00:56:48;;;;;;;136.07;10.55;;;;;;;-3.79;100.00;98448.25;5030922;28;20718;-52
2023/01/30 00:59:13;;;;;;;144.65;11.02;;;;;;;-3.55;100.00;98454.72;5035856;28;20025;-54
2023/01/30 01:01:39;;;;;;;144.05;10.35;;;;;;;-3.41;100.00;98470.81;5032300;28;20037;-55
2023/01/30 01:04:05;;;;;;;197.05;13.38;;;;;;;-3.27;100.00;98474.16;5034912;28;20032;-53
2023/01/30 01:06:31;;;;;;;182.57;11.82;;;;;;;-3.15;100.00;98468.94;5032745;28;20044;-53
2023/01/30 01:08:56;;;;;;;130.02;11.55;;;;;;;-3.05;100.00;98465.25;5031932;28;20912;-53
2023/01/30 01:11:25;;;;;;;153.55;11.45;;;;;;;-2.91;100.00;98458.41;5032277;28;20088;-53
2023/01/30 01:13:55;;;;;;;169.07;13.20;;;;;;;-2.75;100.00;98463.59;5038759;28;20765;-52
2023/01/30 01:16:21;;;;;;;169.35;7.53;;;;;;;-2.79;100.00;98456.59;5037160;28;20052;-54
2023/01/30 01:18:47;;;;;;;148.32;9.90;;;;;;;-2.59;100.00;98446.66;5038354;28;20924;-51
2023/01/30 01:21:12;;;;;;;120.15;9.82;;;;;;;-2.56;100.00;98441.72;5037280;28;20045;-54
2023/01/30 01:23:38;;;;;;;132.38;11.90;;;;;;;-2.55;100.00;98434.97;5037535;28;20022;-53
2023/01/30 01:26:03;;;;;;;163.98;12.75;;;;;;;-2.44;100.00;98439.00;5035963;28;20661;-51
2023/01/30 01:28:29;;;;;;;158.98;11.63;;;;;;;-2.30;100.00;98439.75;5036636;28;20041;-53
2023/01/30 01:30:54;;;;;;;148.40;13.98;;;;;;;-2.43;100.00;98434.75;5035095;28;20700;-52
2023/01/30 01:33:19;;;;;;;165.13;13.30;;;;;;;-2.32;100.00;98426.06;5039674;28;20667;-53
2023/01/30 01:35:46;;;;;;;153.80;12.48;;;;;;;-2.19;100.00;98421.63;5039188;28;20420;-53
2023/01/30 01:38:12;;;;;;;119.82;9.30;;;;;;;-2.05;100.00;98422.38;5038356;28;20105;-54
2023/01/30 01:43:24;;;;;;;134.77;11.57;;;;;;;-2.03;100.00;98410.56;5038877;28;20729;-53
2023/01/30 01:46:01;;;;;;;164.60;13.07;;;;;;;-1.82;100.00;98413.38;5037514;28;20060;-52
2023/01/30 01:48:29;;;;;;;171.93;11.48;;;;;;;-1.68;100.00;98393.69;5037382;28;20029;-52
2023/01/30 01:51:16;;;;;;;182.55;13.40;;;;;;;-1.53;100.00;98390.19;5037726;28;20041;-52
2023/01/30 01:53:54;;;;;;;136.88;8.40;;;;;;;-1.50;100.00;98370.81;5036258;28;20024;-52
2023/01/30 01:56:20;;;;;;;141.10;12.10;;;;;;;-1.44;100.00;98367.69;5038799;28;20060;-52
2023/01/30 01:58:54;;;;;;;141.55;10.63;;;;;;;-1.41;100.00;98372.94;5038905;28;20063;-53
2023/01/30 02:01:20;;;;;;;123.03;10.32;;;;;;;-1.30;100.00;98378.56;5036500;28;20147;-53
2023/01/30 02:03:52;;;;;;;138.50;9.60;;;;;;;-1.27;100.00;98375.34;5038037;28;20029;-52
2023/01/30 02:06:18;;;;;;;176.50;14.43;;;;;;;-1.05;100.00;98360.25;5036669;28;20048;-54
2023/01/30 02:08:49;;;;;;;150.13;10.80;;;;;;;-1.06;100.00;98355.09;5038365;28;20116;-53
2023/01/30 02:11:38;;;;;;;129.38;9.05;;;;;;;-0.81;100.00;98338.41;5037125;28;20192;-54
2023/01/30 02:14:05;;;;;;;145.23;9.82;;;;;;;-0.66;100.00;98334.00;5036157;28;20068;-54
2023/01/30 02:16:30;;;;;;;161.10;8.40;;;;;;;-0.65;100.00;98334.88;5034348;28;20052;-53
2023/01/30 02:18:56;;;;;;;155.45;14.45;;;;;;;-0.36;100.00;98326.81;5032752;28;20033;-53
2023/01/30 02:21:27;;;;;;;138.32;10.45;;;;;;;-0.55;100.00;98320.84;5034444;28;20144;-52
2023/01/30 02:24:11;;;;;;;139.80;8.93;;;;;;;-0.05;100.00;98307.72;5035184;28;20029;-53
2023/01/30 02:27:14;;;;;;;163.75;11.95;;;;;;;0.11;100.00;98311.84;5037356;28;20037;-52
2023/01/30 02:29:58;;;;;;;220.00;18.75;;;;;;;0.27;100.00;98300.56;5038425;28;20036;-52
2023/01/30 02:32:45;;;;;;;151.05;14.02;;;;;;;0.71;100.00;98264.81;5036614;28;20053;-52
2023/01/30 02:35:37;;;;;;;206.98;21.23;;;;;;;0.73;100.00;98262.31;5036019;28;20557;-53
2023/01/30 02:38:37;;;;;;;324.77;24.60;;;;;;;0.93;100.00;98263.13;5033346;28;20041;-53
2023/01/30 02:41:28;;;;;;;224.88;21.58;;;;;;;0.96;100.00;98255.56;5036170;28;20347;-55
2023/01/30 02:44:03;;;;;;;195.20;10.98;;;;;;;0.95;100.00;98238.44;5037225;28;20119;-52
2023/01/30 02:46:37;;;;;;;214.82;22.75;;;;;;;0.72;100.00;98261.47;5036743;28;20100;-54
2023/01/30 02:49:27;;;;;;;221.63;19.67;;;;;;;0.47;100.00;98280.94;5036634;28;20025;-54
2023/01/30 02:51:55;;;;;;;252.90;17.48;;;;;;;1.52;100.00;98259.38;5036384;28;20971;-53
2023/01/30 02:54:21;;;;;;;143.63;14.70;;;;;;;0.83;100.00;98261.91;5035075;28;20025;-55
2023/01/30 02:56:51;;;;;;;170.13;12.07;;;;;;;1.22;100.00;98271.06;5035738;28;20041;-55
2023/01/30 02:59:38;;;;;;;191.82;13.95;;;;;;;1.12;100.00;98256.16;5036809;28;20033;-54
2023/01/30 03:02:22;;;;;;;174.00;15.15;;;;;;;1.33;100.00;98252.69;5034182;28;20744;-53
2023/01/30 03:04:59;;;;;;;182.00;15.07;;;;;;;1.54;100.00;98262.84;5035761;28;20036;-53
2023/01/30 03:07:25;;;;;;;241.48;18.00;;;;;;;1.94;100.00;98266.84;5036697;28;20045;-52
2023/01/30 03:09:53;;;;;;;199.77;15.52;;;;;;;1.60;100.00;98257.94;5036813;28;20056;-53
2023/01/30 03:12:27;;;;;;;144.60;13.63;;;;;;;1.45;100.00;98242.00;5036118;28;20056;-52
2023/01/30 03:15:02;;;;;;;172.88;15.23;;;;;;;2.12;100.00;98242.69;5035611;28;20120;-52
2023/01/30 03:17:28;;;;;;;175.38;14.60;;;;;;;2.41;100.00;98240.22;5034267;28;20033;-52
2023/01/30 03:19:55;;;;;;;197.05;16.48;;;;;;;2.48;100.00;98218.16;5034160;28;20052;-53
2023/01/30 03:22:21;;;;;;;162.82;14.13;;;;;;;2.52;100.00;98219.16;5034923;28;20414;-53
2023/01/30 03:24:48;;;;;;;153.05;10.38;;;;;;;2.20;100.00;98215.56;5036089;28;20025;-53
2023/01/30 03:27:13;;;;;;;158.77;13.90;;;;;;;1.87;100.00;98203.34;5034908;28;20416;-52
2023/01/30 03:29:39;;;;;;;210.25;15.95;;;;;;;2.96;100.00;98185.41;5035588;28;20762;-53
2023/01/30 03:32:05;;;;;;;160.73;14.73;;;;;;;2.25;100.00;98172.09;5034902;28;20044;-55
2023/01/30 03:34:30;;;;;;;148.13;11.48;;;;;;;1.38;100.00;98167.44;5036176;28;20522;-52
2023/01/30 03:36:56;;;;;;;193.98;17.75;;;;;;;1.59;100.00;98158.75;5034654;28;20025;-53
2023/01/30 03:39:25;;;;;;;152.60;17.30;;;;;;;2.17;100.00;98163.28;5036718;28;20033;-53
2023/01/30 03:41:51;;;;;;;166.70;20.02;;;;;;;2.42;100.00;98169.22;5035468;28;20044;-55
2023/01/30 03:44:17;;;;;;;128.70;8.27;;;;;;;1.92;100.00;98177.84;5019436;28;20024;-53
2023/01/30 03:46:42;;;;;;;135.40;9.80;;;;;;;2.26;100.00;98167.84;5033911;28;20097;-55
2023/01/30 03:49:07;;;;;;;185.57;20.25;;;;;;;2.58;100.00;98171.44;5034886;28;20219;-54
2023/01/30 03:51:33;;;;;;;158.40;14.27;;;;;;;2.28;100.00;98161.06;5035832;28;20029;-52
2023/01/30 03:53:58;;;;;;;224.25;16.80;;;;;;;3.24;100.00;98153.66;5035495;28;20029;-53
2023/01/30 03:56:24;;;;;;;176.35;15.63;;;;;;;2.70;100.00;98154.66;5035169;28;20033;-53
2023/01/30 03:58:49;;;;;;;246.95;14.63;;;;;;;3.29;100.00;98145.22;5035204;28;20052;-52
2023/01/30 04:01:14;;;;;;;183.05;15.73;;;;;;;3.23;100.00;98139.06;5032963;28;20151;-52
2023/01/30 04:03:40;;;;;;;127.57;11.50;;;;;;;3.21;100.00;98137.28;5036705;28;20029;-54
2023/01/30 04:06:05;;;;;;;217.40;17.58;;;;;;;3.24;100.00;98138.25;5034737;28;20033;-52
2023/01/30 04:08:31;;;;;;;246.20;19.75;;;;;;;3.46;100.00;98149.13;5034737;28;20815;-52
2023/01/30 04:10:56;;;;;;;155.07;12.02;;;;;;;2.86;100.00;98156.88;5033758;28;20032;-54
2023/01/30 04:13:21;;;;;;;181.27;20.83;;;;;;;3.43;100.00;98161.03;5036942;28;20043;-52
2023/01/30 04:15:47;;;;;;;172.40;16.50;;;;;;;3.44;100.00;98153.38;5033603;28;20106;-52
2023/01/30 04:18:12;;;;;;;481.70;33.72;;;;;;;4.36;100.00;98149.69;5034008;28;20041;-52
2023/01/30 04:20:37;;;;;;;152.05;10.02;;;;;;;3.73;100.00;98157.56;5035064;28;20041;-52
2023/01/30 04:23:03;;;;;;;181.93;21.45;;;;;;;3.60;100.00;98153.81;5034671;28;20701;-52
2023/01/30 04:25:28;;;;;;;293.58;25.25;;;;;;;4.04;100.00;98156.66;5036043;28;20570;-52
2023/01/30 04:27:54;;;;;;;268.30;23.67;;;;;;;3.59;100.00;98160.63;5035481;28;20021;-52
2023/01/30 04:30:19;;;;;;;120.90;11.80;;;;;;;3.31;100.00;98165.03;5034143;28;20032;-53
2023/01/30 04:32:45;;;;;;;339.45;25.13;;;;;;;4.32;100.00;98163.31;5036858;28;20033;-54
2023/01/30 04:35:10;;;;;;;427.65;40.03;;;;;;;4.54;100.00;98160.44;5034174;28;20815;-52
2023/01/30 04:37:36;;;;;;;581.05;43.85;;;;;;;4.86;100.00;98158.56;5034516;28;20597;-53
2023/01/30 04:40:01;;;;;;;229.90;18.92;;;;;;;4.36;100.00;98166.03;5035574;28;20078;-53
2023/01/30 04:42:26;;;;;;;373.30;27.02;;;;;;;5.65;100.00;98164.47;5034941;28;20120;-53
2023/01/30 04:44:52;;;;;;;368.67;32.55;;;;;;;4.75;100.00;98151.47;5033007;28;20729;-53
2023/01/30 04:47:17;;;;;;;275.23;21.35;;;;;;;4.24;100.00;98161.47;5033532;28;20043;-51
2023/01/30 04:49:42;;;;;;;196.63;16.08;;;;;;;2.90;100.00;98162.09;5033998;28;20099;-52
2023/01/30 04:52:08;;;;;;;278.80;25.30;;;;;;;3.35;100.00;98155.69;5034718;28;20040;-52
2023/01/30 04:54:33;;;;;;;357.85;32.42;;;;;;;3.29;100.00;98155.50;5034649;28;20411;-57
2023/01/30 04:56:59;;;;;;;345.80;24.27;;;;;;;4.39;100.00;98149.78;5033692;28;20032;-54
2023/01/30 04:59:24;;;;;;;331.48;29.60;;;;;;;5.58;100.00;98148.88;5034884;28;20040;-55
2023/01/30 05:01:50;;;;;;;180.88;21.42;;;;;;;3.51;100.00;98147.56;5034943;28;20048;-53
2023/01/30 05:04:15;;;;;;;187.27;20.90;;;;;;;3.31;100.00;98143.56;5033404;28;20026;-54
2023/01/30 05:06:41;;;;;;;196.88;17.52;;;;;;;2.85;100.00;98146.53;5032824;28;20071;-53
2023/01/30 05:09:06;;;;;;;133.18;10.50;;;;;;;2.54;100.00;98135.34;5032933;28;20393;-53
2023/01/30 05:11:32;;;;;;;170.93;12.55;;;;;;;2.68;100.00;98126.34;5031129;28;20037;-54
2023/01/30 05:13:58;;;;;;;421.48;30.63;;;;;;;3.78;100.00;98115.69;5032833;28;20769;-53
2023/01/30 05:16:24;;;;;;;221.10;14.05;;;;;;;4.38;100.00;98106.84;5031238;28;20023;-52
2023/01/30 05:18:50;;;;;;;505.83;34.42;;;;;;;4.92;100.00;98109.72;5034392;28;20543;-54
2023/01/30 05:21:18;;;;;;;384.20;33.22;;;;;;;4.76;100.00;98111.09;5032673;28;20104;-53
2023/01/30 05:23:44;;;;;;;154.85;17.48;;;;;;;3.01;100.00;98119.63;5034007;28;20025;-52
2023/01/30 05:26:14;;;;;;;214.27;17.45;;;;;;;3.91;100.00;98119.44;5033922;28;20044;-53
2023/01/30 05:28:40;;;;;;;220.90;21.55;;;;;;;4.41;100.00;98109.47;5035972;28;20028;-52
2023/01/30 05:31:11;;;;;;;165.70;10.88;;;;;;;3.64;100.00;98109.34;5034002;28;20049;-53
2023/01/30 05:33:38;;;;;;;287.95;28.98;;;;;;;4.16;100.00;98106.34;5034558;28;20052;-55
2023/01/30 05:36:04;;;;;;;133.93;11.35;;;;;;;3.74;100.00;98106.16;5034706;28;20617;-53
2023/01/30 05:38:29;;;;;;;480.00;37.65;;;;;;;3.80;100.00;98113.16;5034422;28;20033;-54
2023/01/30 05:40:58;;;;;;;471.50;40.45;;;;;;;4.08;100.00;98111.28;5033638;28;20037;-52
2023/01/30 05:43:23;;;;;;;309.85;22.90;;;;;;;4.71;100.00;98111.00;5034893;28;20056;-53
2023/01/30 05:45:56;;;;;;;197.68;17.83;;;;;;;3.39;100.00;98122.38;5033619;28;20124;-52
2023/01/30 05:48:22;;;;;;;408.55;31.88;;;;;;;3.97;100.00;98120.44;5034269;28;20036;-53
2023/01/30 05:50:52;;;;;;;252.60;22.83;;;;;;;3.61;100.00;98128.09;5034504;28;20120;-52
2023/01/30 05:53:18;;;;;;;171.88;15.50;;;;;;;3.34;100.00;98126.53;5033230;28;20040;-54
2023/01/30 05:55:44;;;;;;;182.45;14.68;;;;;;;2.72;100.00;98125.63;5033767;28;20025;-52
2023/01/30 05:58:09;;;;;;;324.10;29.25;;;;;;;3.33;100.00;98118.75;5034420;28;20035;-53
2023/01/30 06:00:35;;;;;;;273.00;19.67;;;;;;;4.13;100.00;98116.53;5035116;28;20041;-53
2023/01/30 06:03:00;;;;;;;144.32;11.80;;;;;;;3.74;100.00;98105.28;5038421;28;20021;-53
2023/01/30 06:05:26;;;;;;;165.98;15.70;;;;;;;3.86;100.00;98097.88;5037525;28;20328;-53
2023/01/30 06:07:51;;;;;;;165.05;14.27;;;;;;;3.33;100.00;98090.47;5018461;28;20041;-52
2023/01/30 06:10:16;;;;;;;265.60;29.38;;;;;;;3.61;100.00;98093.81;5034553;28;20052;-56
2023/01/30 06:12:42;;;;;;;170.27;14.18;;;;;;;3.38;100.00;98096.66;5035483;28;20057;-53
2023/01/30 06:15:08;;;;;;;251.00;29.15;;;;;;;3.63;100.00;98094.69;5037705;28;20118;-53
2023/01/30 06:17:33;;;;;;;176.23;14.75;;;;;;;3.50;100.00;98101.25;5037519;28;20037;-52
2023/01/30 06:19:59;;;;;;;245.93;24.35;;;;;;;4.46;100.00;98100.16;5037240;28;20037;-54
2023/01/30 06:22:24;;;;;;;201.02;22.63;;;;;;;3.53;100.00;98097.88;5036262;28;20073;-55
2023/01/30 06:24:49;;;;;;;138.27;10.77;;;;;;;4.54;100.00;98087.44;5038647;28;20838;-54
2023/01/30 06:27:15;;;;;;;249.88;26.30;;;;;;;3.63;100.00;98095.59;5037178;28;20051;-53
2023/01/30 06:29:40;;;;;;;278.83;23.38;;;;;;;4.40;100.00;98095.75;5035197;28;20032;-53
2023/01/30 06:32:05;;;;;;;163.85;16.70;;;;;;;3.69;100.00;98094.88;5036836;28;20037;-52
2023/01/30 06:34:31;;;;;;;253.32;26.65;;;;;;;3.49;100.00;98096.94;5038611;28;20545;-55
2023/01/30 06:36:56;;;;;;;139.40;10.35;;;;;;;4.89;100.00;98084.75;5036217;28;20083;-52
2023/01/30 06:39:21;;;;;;;197.82;17.40;;;;;;;5.18;100.00;98083.59;5037254;28;20025;-57
2023/01/30 06:41:47;;;;;;;432.52;49.13;;;;;;;5.22;100.00;98085.41;5036251;28;20045;-56
2023/01/30 06:44:12;;;;;;;257.27;26.05;;;;;;;4.58;100.00;98089.25;5035886;28;20027;-53
2023/01/30 06:46:37;;;;;;;384.77;39.65;;;;;;;5.79;100.00;98088.16;5037457;28;20039;-53
2023/01/30 06:49:03;;;;;;;376.98;38.72;;;;;;;5.05;100.00;98092.81;5037673;28;20123;-54
2023/01/30 06:51:29;;;;;;;297.48;31.45;;;;;;;5.94;100.00;98094.44;5037576;28;20099;-53
2023/01/30 06:53:54;;;;;;;206.15;26.23;;;;;;;2.00;100.00;98091.75;5034656;28;20052;-53
2023/01/30 06:56:20;;;;;;;200.35;23.20;;;;;;;0.57;100.00;98100.44;5033501;28;20156;-53
2023/01/30 06:58:45;;;;;;;185.38;20.75;;;;;;;0.18;100.00;98096.38;5036912;28;20021;-53
2023/01/30 07:01:11;;;;;;;217.38;24.50;;;;;;;-0.08;100.00;98097.91;5035792;28;20037;-56
2023/01/30 07:03:36;;;;;;;187.90;19.98;;;;;;;-0.18;100.00;98097.50;5037069;28;20071;-53
2023/01/30 07:06:02;;;;;;;202.98;22.27;;;;;;;-0.22;100.00;98094.78;5034702;28;20041;-55
2023/01/30 07:08:27;;;;;;;135.80;12.23;;;;;;;0.08;100.00;98091.72;5037182;28;20103;-55
2023/01/30 07:10:53;;;;;;;470.95;60.97;;;;;;;1.27;100.00;98090.16;5028835;28;20100;-55
2023/01/30 07:13:18;;;;;;;158.52;13.73;;;;;;;1.98;100.00;98079.69;5034258;28;20198;-56
2023/01/30 07:15:44;;;;;;;231.73;17.17;;;;;;;1.95;100.00;98099.31;5026992;28;20044;-56
2023/01/30 07:18:10;;;;;;;191.00;14.18;;;;;;;2.70;100.00;98088.75;5033707;28;20021;-54
2023/01/30 07:20:35;;;;;;;222.90;22.83;;;;;;;2.81;100.00;98080.47;5033900;28;20041;-53
2023/01/30 07:23:01;;;;;;;195.57;15.48;;;;;;;3.02;100.00;98072.53;5034855;28;20625;-53
2023/01/30 07:25:27;;;;;;;594.70;56.55;;;;;;;4.69;100.00;98071.47;5033141;28;20041;-54
2023/01/30 07:27:56;;;;;;;821.50;74.38;;;;;;;4.47;100.00;98072.69;5033400;28;20079;-54
2023/01/30 07:30:21;;;;;;;301.25;23.35;;;;;;;5.33;100.00;98060.72;5032465;28;20078;-53
2023/01/30 07:32:53;;;;;;;335.75;34.85;;;;;;;4.55;100.00;98068.56;5034235;28;20032;-54
2023/01/30 07:35:19;;;;;;;1034.18;97.88;;;;;;;5.94;100.00;98068.63;5034656;28;20025;-54
2023/01/30 07:37:48;;;;;;;257.02;27.63;;;;;;;5.12;100.00;98050.84;5032590;28;20117;-56
2023/01/30 07:40:15;;;;;;;425.58;45.35;;;;;;;4.97;100.00;98047.97;5034303;28;20044;-52
2023/01/30 07:42:41;;;;;;;581.33;53.08;;;;;;;5.24;100.00;98039.91;5034893;28;20465;-54
2023/01/30 07:45:07;;;;;;;612.65;56.35;;;;;;;6.00;100.00;98032.56;5036763;28;20040;-54
2023/01/30 07:47:33;;;;;;;800.47;72.38;;;;;;;5.84;100.00;98036.63;5034551;28;20067;-56
2023/01/30 07:49:58;;;;;;;566.83;51.70;;;;;;;5.06;100.00;98041.25;5033938;28;20131;-53
2023/01/30 07:52:23;;;;;;;1008.00;91.05;;;;;;;6.23;100.00;98024.34;5018672;28;20037;-56
2023/01/30 07:54:49;;;;;;;664.63;66.18;;;;;;;7.52;100.00;98015.53;5035359;28;20056;-53
2023/01/30 07:57:14;;;;;;;489.50;42.30;;;;;;;6.23;100.00;98014.88;5034701;28;20120;-53
2023/01/30 07:59:40;;;;;;;188.52;13.68;;;;;;;5.78;100.00;98006.41;5033856;28;20656;-54
2023/01/30 08:02:08;;;;;;;318.92;34.30;;;;;;;5.63;100.00;98016.47;5035834;28;20044;-54
2023/01/30 08:04:33;;;;;;;828.13;72.50;;;;;;;7.24;100.00;98011.81;5036782;28;20067;-55
2023/01/30 08:06:58;;;;;;;415.92;37.03;;;;;;;6.93;100.00;97995.94;5035749;28;20360;-56
2023/01/30 08:09:24;;;;;;;205.30;19.42;;;;;;;6.17;100.00;97993.25;5034892;28;20095;-56
2023/01/30 08:11:49;;;;;;;252.13;22.58;;;;;;;6.16;100.00;97996.69;5033774;28;20139;-54
2023/01/30 08:14:14;;;;;;;204.43;15.63;;;;;;;5.86;100.00;97997.09;5032426;28;20040;-56
2023/01/30 08:16:40;;;;;;;480.02;46.90;;;;;;;6.05;100.00;98001.72;5032642;28;20037;-55
2023/01/30 08:19:06;;;;;;;220.32;26.45;;;;;;;5.18;100.00;98016.56;5035378;28;20021;-53
2023/01/30 08:21:31;;;;;;;187.88;18.60;;;;;;;4.84;100.00;98015.91;5032900;28;20112;-55
2023/01/30 08:23:56;;;;;;;179.68;17.20;;;;;;;4.64;100.00;98011.25;5034223;28;20571;-53
2023/01/30 08:26:22;;;;;;;190.23;18.23;;;;;;;5.73;100.00;98002.91;5034045;28;20053;-54
2023/01/30 08:28:47;;;;;;;185.93;20.38;;;;;;;6.27;100.00;98002.03;5035140;28;20487;-53
2023/01/30 08:31:15;;;;;;;150.65;18.83;;;;;;;7.32;100.00;97994.66;5034063;28;20130;-54
2023/01/30 08:33:40;;;;;;;193.75;24.52;;;;;;;6.40;100.00;98005.63;5035340;28;20063;-55
2023/01/30 08:36:06;;;;;;;222.15;25.15;;;;;;;6.10;100.00;98006.09;5034878;28;20037;-53
2023/01/30 08:38:31;;;;;;;187.23;15.68;;;;;;;4.34;100.00;98007.16;5034996;28;20067;-55
2023/01/30 08:40:58;;;;;;;161.07;14.07;;;;;;;5.16;100.00;97992.47;5034502;28;20415;-54
2023/01/30 08:43:23;;;;;;;157.85;13.43;;;;;;;4.64;100.00;98001.78;5035507;28;20021;-55
2023/01/30 08:45:52;;;;;;;237.95;24.20;;;;;;;6.57;100.00;97987.78;5033598;28;20087;-56
2023/01/30 08:48:17;;;;;;;210.88;23.63;;;;;;;5.93;100.00;97979.97;5018821;28;20028;-54
2023/01/30 08:50:43;;;;;;;188.25;23.00;;;;;;;4.76;100.00;97983.16;5033811;28;20117;-53
2023/01/30 08:53:09;;;;;;;138.45;16.27;;;;;;;5.73;100.00;97977.94;5032829;28;20316;-55
2023/01/30 08:55:34;;;;;;;160.57;15.75;;;;;;;5.12;100.00;97964.91;5035388;28;20037;-53
2023/01/30 08:58:00;;;;;;;163.60;13.88;;;;;;;6.56;100.00;97966.22;5031678;28;20034;-53
2023/01/30 09:00:26;;;;;;;189.52;19.38;;;;;;;8.12;100.00;97962.47;5034740;28;20037;-55
2023/01/30 09:02:54;;;;;;;127.30;12.52;;;;;;;6.06;100.00;97970.75;5033391;28;20099;-56
2023/01/30 09:05:20;;;;;;;111.80;10.55;;;;;;;7.27;100.00;97978.19;5033524;28;20033;-53
2023/01/30 09:07:45;;;;;;;163.18;16.77;;;;;;;7.31;100.00;97982.53;5034710;28;20037;-55
2023/01/30 09:10:10;;;;;;;213.93;25.48;;;;;;;6.68;100.00;97975.84;5033728;28;20082;-55
2023/01/30 09:12:36;;;;;;;147.90;15.07;;;;;;;7.03;100.00;97966.75;5035464;28;20466;-55
2023/01/30 09:15:01;;;;;;;204.40;21.67;;;;;;;6.29;100.00;97970.19;5035445;28;20164;-54
2023/01/30 09:17:26;;;;;;;179.45;17.30;;;;;;;6.36;100.00;97978.88;5034697;28;20044;-55
2023/01/30 09:19:52;;;;;;;189.35;18.20;;;;;;;6.27;100.00;97965.84;5033975;28;20029;-54
2023/01/30 09:22:18;;;;;;;119.82;11.40;;;;;;;5.28;100.00;97971.19;5033727;28;20132;-56
2023/01/30 09:24:43;;;;;;;164.65;17.85;;;;;;;7.49;100.00;97961.16;5034810;28;20061;-55
2023/01/30 09:27:09;;;;;;;143.77;11.05;;;;;;;5.66;100.00;97967.50;5033829;28;20032;-56
2023/01/30 09:29:34;;;;;;;243.68;23.70;;;;;;;5.27;100.00;97965.16;4999374;28;20029;-54
2023/01/30 09:32:00;;;;;;;146.30;12.23;;;;;;;5.82;100.00;97969.50;5035305;28;20160;-55
2023/01/30 09:34:27;;;;;;;186.23;19.10;;;;;;;4.68;100.00;97971.81;5037383;28;20033;-53
2023/01/30 09:36:59;;;;;;;218.27;23.55;;;;;;;6.62;100.00;97955.09;5036767;28;20029;-54
2023/01/30 09:39:25;;;;;;;156.15;11.10;;;;;;;6.24;100.00;97948.59;5036970;28;20037;-56
2023/01/30 09:42:00;;;;;;;124.05;8.85;;;;;;;7.26;100.00;97940.25;5037999;28;20076;-55
2023/01/30 09:44:56;;;;;;;206.95;20.02;;;;;;;6.63;100.00;97967.16;5038208;28;20040;-54
2023/01/30 09:47:22;;;;;;;217.77;22.77;;;;;;;6.33;100.00;97960.75;5037111;28;20064;-54
2023/01/30 09:50:18;;;;;;;176.10;15.05;;;;;;;6.20;100.00;97949.41;5037700;28;20159;-55
2023/01/30 09:52:59;;;;;;;116.65;9.98;;;;;;;5.91;100.00;97945.53;5032695;28;20596;-54
2023/01/30 09:55:29;;;;;;;238.15;27.50;;;;;;;5.47;100.00;97941.41;5038625;28;20056;-53
2023/01/30 09:57:57;;;;;;;171.38;18.73;;;;;;;5.51;100.00;97950.94;5037526;28;20095;-56
2023/01/30 10:00:41;;;;;;;172.65;21.73;;;;;;;5.77;100.00;97942.75;5037922;28;20057;-56
2023/01/30 10:03:15;;;;;;;186.20;19.50;;;;;;;6.49;100.00;97939.44;5038011;28;20037;-54
2023/01/30 10:05:48;;;;;;;185.45;17.88;;;;;;;5.78;100.00;97938.44;5037666;28;20589;-54
2023/01/30 10:08:38;;;;;;;266.33;25.88;;;;;;;4.94;100.00;97936.22;5037040;28;20660;-54
2023/01/30 10:11:41;;;;;;;167.20;13.98;;;;;;;5.58;100.00;97931.28;5037547;28;20047;-54
2023/01/30 10:14:06;;;;;;;;;;;;;;;6.74;100.00;97933.69;5037434;28;20044;-54
2023/01/30 10:16:53;;;;;;;175.67;13.70;;;;;;;6.75;100.00;97922.50;5036680;28;19912;-55
2023/01/30 10:19:24;;;;;;;210.55;24.98;;;;;;;7.43;100.00;97920.56;5038387;28;20270;-56
2023/01/30 10:22:30;;;;;;;168.82;17.15;;;;;;;7.35;100.00;97922.19;5037549;28;20422;-53
2023/01/30 10:25:36;;;;;;;140.25;13.73;;;;;;;6.70;100.00;97937.09;4983971;28;20041;-55
2023/01/30 10:28:02;;;;;;;179.30;16.88;;;;;;;6.08;100.00;97937.19;4957851;28;20773;-56
2023/01/30 10:30:27;;;;;;;167.70;12.52;;;;;;;7.08;100.00;97934.03;5020386;28;20164;-55
2023/01/30 10:33:07;;;;;;;181.35;17.17;;;;;;;7.42;100.00;97930.88;5038069;28;20021;-54
2023/01/30 10:35:40;;;;;;;133.98;11.32;;;;;;;6.10;100.00;97917.41;5034568;28;20462;-55
2023/01/30 10:38:16;;;;;;;164.38;18.15;;;;;;;7.14;100.00;97917.72;5036380;28;20116;-56
2023/01/30 10:40:43;;;;;;;146.40;12.98;;;;;;;5.80;100.00;97918.69;5035434;28;20541;-53
2023/01/30 10:43:32;;;;;;;146.05;9.98;;;;;;;6.19;100.00;97911.50;5037380;28;20044;-54
2023/01/30 10:46:35;;;;;;;180.27;19.52;;;;;;;7.57;100.00;97921.53;5033871;28;20056;-54
2023/01/30 10:49:22;;;;;;;200.55;19.52;;;;;;;6.94;100.00;97917.53;5036184;28;20030;-53
2023/01/30 10:52:05;;;;;;;159.68;13.88;;;;;;;7.58;100.00;97913.78;5020674;28;20041;-54
2023/01/30 10:54:40;;;;;;;173.75;19.58;;;;;;;6.78;100.00;97922.53;5036919;28;20025;-55
2023/01/30 10:57:50;;;;;;;156.88;14.57;;;;;;;7.66;100.00;97917.28;5036884;28;20361;-55
2023/01/30 11:00:22;;;;;;;164.02;15.57;;;;;;;6.98;100.00;97924.47;5035311;28;20032;-54
2023/01/30 11:03:06;;;;;;;172.60;14.77;;;;;;;7.28;100.00;97915.25;5037386;28;20056;-56
2023/01/30 11:05:46;;;;;;;137.38;8.77;;;;;;;6.38;100.00;97903.13;5036344;28;20068;-55
2023/01/30 11:08:19;;;;;;;126.13;11.63;;;;;;;8.83;100.00;97883.28;5036771;28;20036;-56
2023/01/30 11:10:45;;;;;;;141.13;10.07;;;;;;;6.27;100.00;97896.97;5036788;28;20036;-54
2023/01/30 11:13:18;;;;;;;135.73;12.30;;;;;;;7.62;100.00;97892.25;5037541;28;20367;-56
2023/01/30 11:15:46;;;;;;;158.68;15.18;;;;;;;7.89;100.00;97892.38;5036185;28;20764;-54
2023/01/30 11:18:13;;;;;;;160.48;15.25;;;;;;;7.35;100.00;97893.75;5035379;28;20109;-55
2023/01/30 11:20:40;;;;;;;149.95;8.82;;;;;;;7.95;100.00;97882.09;5016578;28;20033;-55
2023/01/30 11:23:30;;;;;;;235.82;18.95;;;;;;;7.46;100.00;97888.66;5034659;28;20037;-53